Time;durP1;ratioP1;P1;durP2;ratioP2;P2;SDS_P1;SDS_P2;PMS_P1;PMS_P2;Temp;Humidity;BMP_temperature;BMP_pressure;BME280_temperature;BME280_humidity;BME280_pressure;Samples;Min_cycle;Max_cycle;Signal;HPM_P1;HPM_P2
2023/06/07 00:00:39;;;;;;;1.30;1.20;;;25.30;50.10;;;;;;6388382;27;20031;-46
2023/06/07 00:03:41;;;;;;;1.60;1.38;;;25.20;50.20;;;;;;6390114;27;20049;-48
2023/06/07 00:06:43;;;;;;;1.33;1.10;;;25.20;50.10;;;;;;6389794;27;20041;-48
2023/06/07 00:09:45;;;;;;;1.23;1.13;;;25.20;50.30;;;;;;6388718;27;20116;-49
2023/06/07 00:12:47;;;;;;;1.95;1.42;;;25.20;50.20;;;;;;6382737;27;20067;-50
2023/06/07 00:15:49;;;;;;;1.30;1.20;;;25.30;50.40;;;;;;6388890;27;20046;-45
2023/06/07 00:18:51;;;;;;;1.05;0.95;;;25.20;50.10;;;;;;6369848;27;20043;-46
2023/06/07 00:21:55;;;;;;;1.20;1.10;;;25.10;50.30;;;;;;6388990;27;20064;-49
2023/06/07 00:24:57;;;;;;;1.33;1.23;;;25.20;50.20;;;;;;6390268;27;20119;-46
2023/06/07 00:28:02;;;;;;;1.55;1.30;;;24.70;50.00;;;;;;6389875;27;20042;-46
2023/06/07 00:31:05;;;;;;;1.83;1.30;;;25.20;50.30;;;;;;6389542;27;20122;-47
2023/06/07 00:34:06;;;;;;;1.40;1.10;;;25.00;50.10;;;;;;6389583;27;20050;-46
2023/06/07 00:37:12;;;;;;;1.30;1.20;;;25.10;50.30;;;;;;6372442;27;20082;-48
2023/06/07 00:40:13;;;;;;;1.27;1.17;;;25.20;50.40;;;;;;6391477;27;20638;-48
2023/06/07 00:43:15;;;;;;;1.33;1.00;;;25.10;50.40;;;;;;6393772;27;20035;-49
2023/06/07 00:46:19;;;;;;;1.40;1.10;;;24.70;50.10;;;;;;6394087;27;20061;-47
2023/06/07 00:49:22;;;;;;;1.30;1.00;;;25.10;50.30;;;;;;6375834;27;20035;-46
2023/06/07 00:52:24;;;;;;;1.30;1.15;;;25.10;51.10;;;;;;6392631;27;20072;-49
2023/06/07 00:55:26;;;;;;;1.15;1.00;;;24.60;50.00;;;;;;6394247;27;20041;-49
2023/06/07 00:58:29;;;;;;;1.58;1.15;;;25.00;50.30;;;;;;6393482;27;20050;-46
2023/06/07 01:01:33;;;;;;;1.40;1.20;;;25.00;50.20;;;;;;6393801;27;20043;-45
2023/06/07 01:04:39;;;;;;;1.20;1.10;;;25.00;50.30;;;;;;6394038;27;20069;-47
2023/06/07 01:07:44;;;;;;;1.42;1.30;;;25.10;50.40;;;;;;6393631;27;20042;-49
2023/06/07 01:10:48;;;;;;;1.10;0.98;;;24.70;50.10;;;;;;6390577;22;20040;-84
2023/06/07 01:13:51;;;;;;;1.02;0.93;;;24.90;50.40;;;;;;6337816;28;20089;-84
2023/06/07 01:16:53;;;;;;;1.17;1.08;;;24.70;50.30;;;;;;6337274;28;20567;-84
2023/06/07 01:19:58;;;;;;;1.20;1.10;;;24.70;50.40;;;;;;6348146;28;20036;-84
2023/06/07 01:23:02;;;;;;;1.35;1.00;;;25.10;50.80;;;;;;6329108;28;20039;-83
2023/06/07 01:26:05;;;;;;;1.20;1.10;;;23.60;50.10;;;;;;6332156;28;20039;-83
2023/06/07 01:29:07;;;;;;;1.15;1.05;;;25.20;51.30;;;;;;6330450;28;20048;-84
2023/06/07 01:32:11;;;;;;;1.33;1.05;;;24.70;50.80;;;;;;6331186;28;20042;-84
2023/06/07 01:35:15;;;;;;;1.13;1.02;;;26.00;51.40;;;;;;6331001;28;20043;-83
2023/06/07 01:38:19;;;;;;;1.23;1.13;;;25.70;51.20;;;;;;6331193;28;20444;-84
2023/06/07 01:41:23;;;;;;;1.10;1.00;;;24.80;50.50;;;;;;6330438;28;20134;-84
2023/06/07 01:44:25;;;;;;;1.13;1.02;;;24.20;50.20;;;;;;6333231;28;20058;-84
2023/06/07 01:47:27;;;;;;;1.00;0.90;;;24.70;50.50;;;;;;6334880;28;20373;-84
2023/06/07 01:50:29;;;;;;;0.88;0.80;;;24.80;51.50;;;;;;6354080;28;20028;-84
2023/06/07 01:53:31;;;;;;;1.13;1.02;;;23.40;50.30;;;;;;6354553;28;20035;-84
2023/06/07 01:56:50;;;;;;;1.10;1.00;;;27.80;53.90;;;;;;6281164;28;20459;-84
2023/06/07 02:00:06;;;;;;;1.10;0.90;;;24.50;50.40;;;;;;6259510;28;20836;-84
2023/06/07 02:03:18;;;;;;;1.13;1.02;;;25.20;50.60;;;;;;6279404;28;20044;-84
2023/06/07 02:06:28;;;;;;;1.25;0.93;;;24.60;50.40;;;;;;6244261;28;20048;-84
2023/06/07 02:09:30;;;;;;;1.02;0.90;;;26.20;51.40;;;;;;6275273;28;20049;-84
2023/06/07 02:12:34;;;;;;;0.88;0.85;;;24.70;50.70;;;;;;6275296;28;20057;-84
2023/06/07 02:15:36;;;;;;;0.90;0.80;;;24.50;50.40;;;;;;6274196;28;20581;-84
2023/06/07 02:18:40;;;;;;;1.02;0.90;;;24.50;51.00;;;;;;6260240;28;20040;-84
2023/06/07 02:21:41;;;;;;;1.13;1.02;;;25.10;51.50;;;;;;6274015;28;20504;-84
2023/06/07 02:24:46;;;;;;;1.08;0.98;;;24.30;51.20;;;;;;6261726;28;20455;-84
2023/06/07 02:27:50;;;;;;;1.00;0.90;;;24.60;51.60;;;;;;6332035;28;20414;-84
2023/06/07 02:30:55;;;;;;;0.95;0.90;;;23.60;50.40;;;;;;6339787;28;20040;-84
2023/06/07 02:33:56;;;;;;;1.13;0.98;;;24.60;50.60;;;;;;6358443;28;20379;-84
2023/06/07 02:36:58;;;;;;;1.35;1.00;;;25.00;51.60;;;;;;6340550;28;20225;-84
2023/06/07 02:40:00;;;;;;;1.08;0.90;;;24.30;50.70;;;;;;6340619;28;20040;-86
2023/06/07 02:43:02;;;;;;;1.00;0.90;;;24.60;51.40;;;;;;6340079;28;20097;-84
2023/06/07 02:46:04;;;;;;;1.00;0.80;;;24.80;50.80;;;;;;6339824;28;20043;-84
2023/06/07 02:49:06;;;;;;;1.45;1.20;;;24.90;51.50;;;;;;6339845;28;20046;-84
2023/06/07 02:52:10;;;;;;;1.23;0.90;;;24.10;51.30;;;;;;6357367;28;20066;-84
2023/06/07 02:55:11;;;;;;;1.02;0.93;;;24.50;50.50;;;;;;6339878;28;20159;-84
2023/06/07 02:58:15;;;;;;;0.90;0.73;;;24.00;50.90;;;;;;6339923;28;20089;-84
2023/06/07 03:01:17;;;;;;;1.17;0.90;;;24.50;51.50;;;;;;6339828;28;20046;-84
2023/06/07 03:04:26;;;;;;;1.17;0.90;;;23.30;50.60;;;;;;6341081;28;20046;-84
2023/06/07 03:07:35;;;;;;;1.40;1.10;;;24.30;51.60;;;;;;6361083;28;20043;-84
2023/06/07 03:10:39;;;;;;;1.73;1.20;;;24.20;50.80;;;;;;6342804;28;20073;-84
2023/06/07 03:13:43;;;;;;;1.25;1.15;;;23.90;51.00;;;;;;6341246;28;20065;-84
2023/06/07 03:16:48;;;;;;;1.00;0.80;;;24.10;51.30;;;;;;6341442;28;20042;-84
2023/06/07 03:19:51;;;;;;;1.10;0.90;;;24.50;51.10;;;;;;6341758;28;20087;-85
2023/06/07 03:22:53;;;;;;;1.15;0.90;;;23.50;51.10;;;;;;6336850;28;20075;-84
2023/06/07 03:25:56;;;;;;;1.20;1.10;;;24.30;51.60;;;;;;6341217;28;20096;-84
2023/06/07 03:29:02;;;;;;;1.20;0.80;;;23.30;51.10;;;;;;6360346;28;20040;-84
2023/06/07 03:32:08;;;;;;;1.00;0.90;;;23.90;51.30;;;;;;6341413;28;20110;-84
2023/06/07 03:35:14;;;;;;;1.00;0.90;;;25.60;52.20;;;;;;6341426;28;20051;-84
2023/06/07 03:38:18;;;;;;;1.25;1.10;;;24.40;51.60;;;;;;6342586;28;20046;-84
2023/06/07 03:41:25;;;;;;;0.93;0.82;;;24.20;50.80;;;;;;6358866;28;20043;-84
2023/06/07 03:44:29;;;;;;;1.00;0.90;;;23.90;50.80;;;;;;6341328;28;20040;-84
2023/06/07 03:47:31;;;;;;;1.05;0.95;;;24.70;51.80;;;;;;6341052;28;20051;-84
2023/06/07 03:50:33;;;;;;;1.25;1.00;;;24.40;51.90;;;;;;6340268;28;20042;-84
2023/06/07 03:53:35;;;;;;;1.10;1.00;;;24.80;51.70;;;;;;6340341;28;20039;-84
2023/06/07 03:56:36;;;;;;;1.33;1.23;;;24.10;51.50;;;;;;6360177;28;20036;-84
2023/06/07 03:59:40;;;;;;;0.93;0.85;;;23.60;51.20;;;;;;6342643;28;20043;-84
2023/06/07 04:02:42;;;;;;;1.35;1.23;;;25.10;52.20;;;;;;6343484;28;20040;-84
2023/06/07 04:05:45;;;;;;;1.25;1.15;;;24.00;51.30;;;;;;6341742;28;20047;-84
2023/06/07 04:08:47;;;;;;;1.10;1.00;;;24.30;51.60;;;;;;6341362;28;20114;-84
2023/06/07 04:11:49;;;;;;;1.10;1.00;;;23.40;50.40;;;;;;6340545;28;20044;-84
2023/06/07 04:14:51;;;;;;;1.50;1.20;;;23.70;51.10;;;;;;6361117;28;20071;-84
2023/06/07 04:17:54;;;;;;;1.08;0.98;;;24.00;51.60;;;;;;6364432;28;20055;-84
2023/06/07 04:20:57;;;;;;;1.33;1.10;;;24.50;52.10;;;;;;6344088;28;20460;-84
2023/06/07 04:23:58;;;;;;;1.25;1.15;;;23.90;51.40;;;;;;6340704;28;20047;-84
2023/06/07 04:27:02;;;;;;;1.30;0.90;;;26.00;52.80;;;;;;6345635;28;20047;-84
2023/06/07 04:30:05;;;;;;;1.58;1.13;;;23.90;51.20;;;;;;6345941;28;20039;-84
2023/06/07 04:33:12;;;;;;;1.92;1.08;;;23.80;50.60;;;;;;6344665;28;20027;-84
2023/06/07 04:36:18;;;;;;;1.10;1.00;;;23.10;50.40;;;;;;6327532;28;20050;-84
2023/06/07 04:39:20;;;;;;;1.67;1.13;;;24.50;51.40;;;;;;6345661;28;20040;-84
2023/06/07 04:42:25;;;;;;;1.23;1.10;;;24.00;51.90;;;;;;6343471;28;20039;-84
2023/06/07 04:45:31;;;;;;;1.02;0.82;;;24.00;51.80;;;;;;6344352;28;20063;-84
2023/06/07 04:48:41;;;;;;;1.65;1.40;;;24.00;51.50;;;;;;6366363;28;20043;-84
2023/06/07 04:51:42;;;;;;;1.73;1.40;;;23.00;51.40;;;;;;6350477;28;20051;-84
2023/06/07 04:54:46;;;;;;;1.60;1.50;;;24.00;64.60;;;;;;6347287;28;20543;-84
2023/06/07 04:57:54;;;;;;;1.70;1.60;;;24.00;52.00;;;;;;6348577;28;20044;-85
2023/06/07 05:01:00;;;;;;;1.13;1.02;;;23.60;51.60;;;;;;6347695;28;20035;-85
2023/06/07 05:04:07;;;;;;;1.58;1.30;;;23.70;51.40;;;;;;6347896;28;20047;-85
2023/06/07 05:07:15;;;;;;;1.40;1.30;;;24.40;51.70;;;;;;6347393;28;20043;-84
2023/06/07 05:10:22;;;;;;;1.38;1.13;;;24.10;51.80;;;;;;6365363;28;20035;-84
2023/06/07 05:13:24;;;;;;;1.63;1.40;;;24.10;52.40;;;;;;6346700;28;20047;-84
2023/06/07 05:16:26;;;;;;;1.38;1.27;;;22.90;51.60;;;;;;6347452;28;20039;-85
2023/06/07 05:19:30;;;;;;;1.52;1.20;;;24.90;52.50;;;;;;6358093;28;20100;-84
2023/06/07 05:22:32;;;;;;;1.13;1.00;;;24.70;52.40;;;;;;6334904;28;20036;-84
2023/06/07 05:25:35;;;;;;;1.48;1.20;;;24.10;52.20;;;;;;6353133;28;20036;-84
2023/06/07 05:28:37;;;;;;;1.55;1.15;;;24.50;52.50;;;;;;6336664;28;20048;-84
2023/06/07 05:31:43;;;;;;;1.30;1.20;;;24.20;52.50;;;;;;6329486;28;20624;-83
2023/06/07 05:34:48;;;;;;;1.13;1.02;;;22.60;51.60;;;;;;6334083;28;20092;-84
2023/06/07 05:37:50;;;;;;;1.20;1.10;;;23.90;52.30;;;;;;6333967;28;20103;-84
2023/06/07 05:40:54;;;;;;;1.05;0.95;;;23.00;51.90;;;;;;6333460;28;20040;-84
2023/06/07 05:43:55;;;;;;;1.48;1.30;;;23.60;51.40;;;;;;6336660;28;20044;-84
2023/06/07 05:46:58;;;;;;;1.90;1.25;;;25.60;53.60;;;;;;6334351;28;20135;-84
2023/06/07 05:50:03;;;;;;;1.40;1.30;;;24.30;52.70;;;;;;6326233;28;20267;-84
2023/06/07 05:53:05;;;;;;;1.88;1.40;;;24.00;51.80;;;;;;6313191;28;20063;-84
2023/06/07 05:56:09;;;;;;;1.48;1.25;;;25.30;53.30;;;;;;6317267;28;20039;-84
2023/06/07 05:59:13;;;;;;;1.60;1.35;;;24.00;52.80;;;;;;6331388;28;20236;-84
2023/06/07 06:02:16;;;;;;;1.27;1.17;;;24.70;52.70;;;;;;6323948;28;20040;-83
2023/06/07 06:05:20;;;;;;;1.25;1.10;;;23.90;52.00;;;;;;6325078;28;20464;-83
2023/06/07 06:08:22;;;;;;;1.23;1.13;;;24.00;51.90;;;;;;6326601;28;20502;-84
2023/06/07 06:11:23;;;;;;;1.70;1.40;;;23.70;52.80;;;;;;6330311;28;20050;-84
2023/06/07 06:14:25;;;;;;;1.60;1.30;;;23.00;52.10;;;;;;6347031;28;20035;-83
2023/06/07 06:17:27;;;;;;;1.45;1.35;;;23.50;52.50;;;;;;6323649;28;20658;-83
2023/06/07 06:20:33;;;;;;;1.42;1.30;;;23.00;52.10;;;;;;6326818;28;20042;-84
2023/06/07 06:23:35;;;;;;;1.65;1.38;;;24.00;52.80;;;;;;6329647;28;20043;-84
2023/06/07 06:26:37;;;;;;;1.45;1.20;;;24.50;52.60;;;;;;6316336;28;20052;-84
2023/06/07 06:29:40;;;;;;;1.35;1.20;;;23.30;52.30;;;;;;6334479;28;20067;-84
2023/06/07 06:32:42;;;;;;;2.05;1.15;;;23.90;53.20;;;;;;6348603;28;20384;-85
2023/06/07 06:35:45;;;;;;;2.67;1.30;;;24.10;53.30;;;;;;6302542;22;20060;-54
2023/06/07 06:38:47;;;;;;;1.20;1.10;;;24.20;52.20;;;;;;6285625;28;20748;-56
2023/06/07 06:41:48;;;;;;;1.50;1.40;;;24.30;52.50;;;;;;6285133;28;20028;-54
2023/06/07 06:44:59;;;;;;;1.23;1.13;;;24.30;52.40;;;;;;6267367;28;20040;-53
2023/06/07 06:48:01;;;;;;;2.95;1.52;;;25.40;51.90;;;;;;6246117;28;20055;-54
2023/06/07 06:51:03;;;;;;;2.13;1.58;;;24.10;51.90;;;;;;6256426;28;20833;-55
2023/06/07 06:54:07;;;;;;;1.90;1.40;;;24.20;52.90;;;;;;6244471;28;20025;-52
2023/06/07 06:57:08;;;;;;;5.50;1.85;;;23.70;53.40;;;;;;6240312;28;20135;-53
2023/06/07 07:00:11;;;;;;;4.40;1.60;;;22.80;52.70;;;;;;6274455;28;20879;-53
2023/06/07 07:03:13;;;;;;;3.78;2.10;;;23.90;53.10;;;;;;6289336;28;20093;-49
2023/06/07 07:06:18;;;;;;;3.03;1.85;;;24.20;53.40;;;;;;6284974;28;20089;-54
2023/06/07 07:09:19;;;;;;;3.20;1.92;;;24.20;51.60;;;;;;6282085;28;20032;-49
2023/06/07 07:12:21;;;;;;;2.90;2.30;;;24.20;54.40;;;;;;6291831;28;20067;-54
2023/06/07 07:15:24;;;;;;;3.05;2.22;;;24.20;52.30;;;;;;6283533;28;20078;-54
2023/06/07 07:18:26;;;;;;;13.52;2.30;;;24.10;52.50;;;;;;6269332;28;20223;-49
2023/06/07 07:31:52;;;;;;;3.70;3.20;;;24.70;69.10;;;;;;6428122;27;20297;-48
2023/06/07 07:34:55;;;;;;;4.45;2.80;;;24.10;67.90;;;;;;6398342;27;20660;-52
2023/06/07 07:38:01;;;;;;;4.68;2.30;;;23.10;64.20;;;;;;6377303;27;20258;-48
2023/06/07 07:41:05;;;;;;;4.18;2.78;;;24.00;53.00;;;;;;6384600;27;20579;-54
2023/06/07 07:44:08;;;;;;;4.70;2.60;;;24.10;52.80;;;;;;6398537;27;20142;-52
2023/06/07 07:47:11;;;;;;;4.88;2.45;;;24.30;53.00;;;;;;6402491;27;20150;-50
2023/06/07 07:50:15;;;;;;;4.13;2.85;;;24.30;53.10;;;;;;6397078;27;20034;-52
2023/06/07 07:53:16;;;;;;;4.65;2.55;;;24.30;53.00;;;;;;6399334;27;20046;-48
2023/06/07 07:56:18;;;;;;;3.38;2.70;;;24.40;52.80;;;;;;6399265;27;20091;-52
2023/06/07 07:59:22;;;;;;;3.45;2.20;;;24.40;52.70;;;;;;6384775;27;20772;-52
2023/06/07 08:02:25;;;;;;;4.10;2.35;;;24.40;52.80;;;;;;6381314;27;20023;-49
2023/06/07 08:05:27;;;;;;;3.05;1.88;;;25.10;53.30;;;;;;6366660;27;20027;-51
2023/06/07 08:08:28;;;;;;;2.50;2.05;;;24.50;52.80;;;;;;6371191;27;20097;-50
2023/06/07 08:11:33;;;;;;;2.10;1.70;;;24.60;53.00;;;;;;6385990;27;20039;-52
2023/06/07 08:14:36;;;;;;;1.90;1.70;;;24.50;52.90;;;;;;6386573;27;20069;-50
2023/06/07 08:17:39;;;;;;;2.95;1.60;;;24.50;53.10;;;;;;6373964;27;20031;-49
2023/06/07 08:20:41;;;;;;;2.13;1.70;;;24.50;52.80;;;;;;6382129;27;20045;-47
2023/06/07 08:23:44;;;;;;;2.20;2.00;;;24.40;52.70;;;;;;6378398;27;20647;-50
2023/06/07 08:26:47;;;;;;;1.75;1.10;;;24.70;53.10;;;;;;6375194;27;20110;-48
2023/06/07 08:29:49;;;;;;;1.38;1.27;;;24.50;52.70;;;;;;6366423;27;20041;-50
2023/06/07 08:32:52;;;;;;;1.75;1.50;;;24.60;52.80;;;;;;6375122;27;20091;-50
2023/06/07 08:35:54;;;;;;;2.40;1.60;;;24.10;52.40;;;;;;6375869;27;20027;-51
2023/06/07 08:38:56;;;;;;;1.88;1.40;;;24.50;52.50;;;;;;6379475;27;20042;-52
2023/06/07 08:41:57;;;;;;;1.55;1.30;;;24.70;53.00;;;;;;6336490;27;20030;-51
2023/06/07 08:45:00;;;;;;;1.20;1.10;;;24.90;53.30;;;;;;6322025;27;20031;-50
2023/06/07 08:48:06;;;;;;;1.83;1.42;;;24.80;52.70;;;;;;6341161;27;20031;-49
2023/06/07 08:51:09;;;;;;;1.30;1.20;;;24.70;52.50;;;;;;6318176;27;20087;-50
2023/06/07 08:54:20;;;;;;;1.15;1.00;;;24.80;52.40;;;;;;6370489;27;20027;-47
2023/06/07 08:57:22;;;;;;;1.50;1.40;;;24.90;52.10;;;;;;6361603;27;20027;-48
2023/06/07 09:00:25;;;;;;;1.20;1.00;;;25.10;52.60;;;;;;6370232;27;20038;-47
2023/06/07 09:03:27;;;;;;;1.33;1.10;;;24.80;52.10;;;;;;6354801;27;20030;-49
2023/06/07 09:06:29;;;;;;;1.38;1.27;;;24.90;52.30;;;;;;6358198;27;20042;-49
2023/06/07 09:09:30;;;;;;;1.85;1.50;;;24.90;52.20;;;;;;6348040;27;20088;-47
2023/06/07 09:12:35;;;;;;;1.48;1.38;;;25.10;52.30;;;;;;6318683;27;20027;-55
2023/06/07 09:15:38;;;;;;;1.40;1.30;;;24.90;52.30;;;;;;6309784;27;20676;-50
2023/06/07 09:18:44;;;;;;;1.20;1.10;;;24.90;52.10;;;;;;6334512;27;20772;-51
2023/06/07 09:21:46;;;;;;;1.98;1.15;;;24.90;52.40;;;;;;6307418;27;20817;-53
2023/06/07 09:24:47;;;;;;;1.50;1.40;;;25.10;53.00;;;;;;6356404;27;20030;-51
2023/06/07 09:27:50;;;;;;;1.55;1.45;;;25.00;51.90;;;;;;6353442;27;20045;-50
2023/06/07 09:30:54;;;;;;;2.15;1.33;;;24.90;51.80;;;;;;6321827;27;20616;-52
2023/06/07 09:34:09;;;;;;;1.35;1.20;;;25.10;51.90;;;;;;6325502;27;20050;-46
2023/06/07 09:37:11;;;;;;;1.52;1.10;;;25.00;52.20;;;;;;6317770;27;20058;-47
2023/06/07 09:40:13;;;;;;;1.33;1.20;;;25.60;52.70;;;;;;6331663;27;20043;-48
2023/06/07 09:43:15;;;;;;;1.52;1.27;;;24.80;51.50;;;;;;6348816;27;20619;-47
2023/06/07 09:46:18;;;;;;;2.33;1.17;;;25.00;52.10;;;;;;6341368;27;20159;-52
2023/06/07 09:49:27;;;;;;;1.45;1.35;;;25.10;51.50;;;;;;6350249;27;20027;-47
2023/06/07 09:52:28;;;;;;;1.40;1.30;;;25.00;51.60;;;;;;6324297;27;20105;-50
2023/06/07 09:55:32;;;;;;;1.73;1.23;;;25.20;51.60;;;;;;6378825;27;20019;-60
2023/06/07 09:58:33;;;;;;;1.88;1.20;;;25.30;51.20;;;;;;6412275;27;20096;-60
2023/06/07 10:01:42;;;;;;;1.52;1.15;;;25.30;51.00;;;;;;6343123;27;20046;-60
2023/06/07 10:04:45;;;;;;;2.35;1.30;;;25.10;50.50;;;;;;6345011;27;20043;-61
2023/06/07 10:07:48;;;;;;;1.10;1.00;;;25.30;50.50;;;;;;6347137;27;20047;-60
2023/06/07 10:10:53;;;;;;;2.00;1.20;;;24.90;50.40;;;;;;6346118;27;20046;-61
2023/06/07 10:13:58;;;;;;;2.30;1.40;;;26.20;50.70;;;;;;6347369;27;20030;-61
2023/06/07 10:17:05;;;;;;;1.30;1.20;;;25.30;50.10;;;;;;6350991;27;20034;-59
2023/06/07 10:20:15;;;;;;;1.42;1.20;;;25.30;49.70;;;;;;6329799;27;20038;-60
2023/06/07 10:23:26;;;;;;;1.50;0.98;;;25.40;49.60;;;;;;6358894;27;20094;-60
2023/06/07 10:26:35;;;;;;;1.30;1.00;;;25.30;49.60;;;;;;6343052;27;20026;-60
2023/06/07 10:29:41;;;;;;;2.03;1.40;;;25.40;49.30;;;;;;6344269;27;20029;-60
2023/06/07 10:32:44;;;;;;;2.33;1.40;;;25.10;48.80;;;;;;6345553;27;20027;-59
2023/06/07 10:35:47;;;;;;;1.23;1.13;;;25.10;48.90;;;;;;6367029;27;20026;-58
2023/06/07 10:38:49;;;;;;;1.20;1.10;;;25.30;48.60;;;;;;6382487;27;20037;-60
2023/06/07 10:41:53;;;;;;;1.38;1.25;;;25.30;48.40;;;;;;6353711;27;20283;-59
2023/06/07 10:44:55;;;;;;;1.48;1.20;;;25.20;47.90;;;;;;6364653;27;20035;-59
2023/06/07 10:48:17;;;;;;;1.27;1.15;;;25.30;47.70;;;;;;6364219;27;20035;-60
2023/06/07 10:51:53;;;;;;;1.70;1.20;;;25.30;47.40;;;;;;6343436;27;20726;-59
2023/06/07 10:54:55;;;;;;;1.98;1.35;;;25.30;47.30;;;;;;6346500;27;20046;-59
2023/06/07 10:57:57;;;;;;;3.80;1.20;;;25.30;46.90;;;;;;6368164;27;20733;-60
2023/06/07 11:01:22;;;;;;;1.67;1.38;;;25.40;46.70;;;;;;6362825;27;20042;-60
2023/06/07 11:04:54;;;;;;;1.65;1.23;;;25.30;46.50;;;;;;6345980;27;20042;-60
2023/06/07 11:08:26;;;;;;;1.25;1.00;;;26.30;46.90;;;;;;6350015;27;20106;-59
2023/06/07 11:11:44;;;;;;;1.90;1.25;;;25.30;46.00;;;;;;6333159;27;20091;-59
2023/06/07 11:15:15;;;;;;;1.38;1.13;;;25.30;45.70;;;;;;6339444;27;20035;-60
2023/06/07 11:18:17;;;;;;;1.35;1.25;;;25.70;45.70;;;;;;6328687;27;20587;-59
2023/06/07 11:21:19;;;;;;;1.23;1.00;;;25.30;45.50;;;;;;6322147;27;20034;-59
2023/06/07 11:24:21;;;;;;;1.25;1.15;;;25.30;45.30;;;;;;6346325;27;20039;-59
2023/06/07 11:27:23;;;;;;;1.65;1.13;;;25.20;44.90;;;;;;6365548;27;20030;-59
2023/06/07 11:30:24;;;;;;;1.25;0.85;;;25.20;44.70;;;;;;6361085;27;20039;-58
2023/06/07 11:33:29;;;;;;;1.27;1.13;;;25.30;44.60;;;;;;6352253;27;20027;-59
2023/06/07 11:36:31;;;;;;;1.60;1.20;;;25.30;44.50;;;;;;6349262;27;20548;-59
2023/06/07 11:43:04;;;;;;;1.35;1.10;;;25.20;43.90;;;;;;7372956;23;20050;-59
2023/06/07 11:46:05;;;;;;;0.80;0.80;;;25.50;44.30;;;;;;6216665;28;20156;-55
2023/06/07 11:49:09;;;;;;;2.65;0.90;;;25.20;43.80;;;;;;6158698;28;20145;-60
2023/06/07 11:52:10;;;;;;;1.42;0.98;;;25.30;43.50;;;;;;6162680;28;20567;-60
2023/06/07 11:55:12;;;;;;;2.95;1.40;;;25.40;43.70;;;;;;6179539;28;20045;-58
2023/06/07 11:58:14;;;;;;;1.15;0.90;;;25.30;43.40;;;;;;6160507;28;20041;-58
2023/06/07 12:01:17;;;;;;;1.67;1.20;;;25.50;43.50;;;;;;6157239;28;20046;-61
2023/06/07 12:04:20;;;;;;;1.98;1.30;;;25.50;43.50;;;;;;6160017;28;20045;-56
2023/06/07 12:07:30;;;;;;;1.38;1.27;;;25.40;43.40;;;;;;6143441;28;20066;-57
2023/06/07 12:10:33;;;;;;;1.55;0.90;;;25.50;43.50;;;;;;6155559;28;20038;-57
2023/06/07 12:13:37;;;;;;;1.17;1.08;;;25.50;43.20;;;;;;6142965;28;20030;-54
2023/06/07 12:16:39;;;;;;;1.80;1.10;;;;;;;;;;6126016;28;20031;-56
2023/06/07 12:20:11;;;;;;;1.15;1.05;;;25.30;41.80;;;;;;6421139;27;20120;-54
2023/06/07 12:23:15;;;;;;;1.10;0.95;;;25.30;42.50;;;;;;6387216;27;20252;-54
2023/06/07 12:26:19;;;;;;;1.30;1.00;;;25.40;42.40;;;;;;6398083;27;20038;-56
2023/06/07 12:29:30;;;;;;;1.98;1.00;;;25.30;42.20;;;;;;6385498;27;20034;-54
2023/06/07 12:32:32;;;;;;;;;;;25.40;42.20;;;;;;6405612;27;20026;-53
2023/06/07 12:35:38;;;;;;;;;;;25.50;42.80;;;;;;6386323;27;19914;-55
2023/06/07 12:38:39;;;;;;;1.27;1.15;;;25.40;42.40;;;;;;6402213;27;20001;-56
2023/06/07 12:41:40;;;;;;;1.90;1.40;;;25.40;42.70;;;;;;6412866;27;20041;-56
2023/06/07 12:44:43;;;;;;;2.20;1.15;;;25.40;42.30;;;;;;6406460;27;20042;-56
2023/06/07 12:47:44;;;;;;;1.35;1.25;;;25.40;42.20;;;;;;6404424;27;20034;-54
2023/06/07 12:50:50;;;;;;;1.20;1.10;;;25.30;42.40;;;;;;6424512;27;20037;-55
2023/06/07 12:53:52;;;;;;;1.23;1.05;;;25.60;42.30;;;;;;6404243;27;20031;-53
2023/06/07 12:56:53;;;;;;;1.38;1.20;;;25.20;42.20;;;;;;6371210;27;20086;-55
2023/06/07 12:59:55;;;;;;;1.15;1.05;;;25.70;42.60;;;;;;6373395;27;20087;-58
2023/06/07 13:02:56;;;;;;;1.20;1.10;;;25.50;42.10;;;;;;6384727;27;20728;-54
2023/06/07 13:05:59;;;;;;;1.50;1.10;;;25.50;42.10;;;;;;6374656;27;20030;-55
2023/06/07 13:09:06;;;;;;;1.40;1.25;;;25.50;42.10;;;;;;6336781;27;20054;-55
2023/06/07 13:12:09;;;;;;;1.40;1.10;;;25.30;42.00;;;;;;6372946;27;20031;-56
2023/06/07 13:15:10;;;;;;;1.10;1.00;;;25.30;42.20;;;;;;6355531;27;20181;-55
2023/06/07 13:18:45;;;;;;;1.60;1.23;;;25.50;42.20;;;;;;6426646;22;20026;31
2023/06/07 13:25:21;;;;;;;2.40;1.30;;;23.50;40.80;;;;;;7205186;23;20050;-92
2023/06/07 14:17:38;;;;;;;1.00;0.90;;;25.50;41.90;;;;;;7537868;23;19920;-49
2023/06/07 15:37:06;;;;;;;1.80;1.27;;;25.40;42.80;;;;;;7093770;23;20026;-51
2023/06/07 15:43:37;;;;;;;1.60;1.02;;;25.40;42.90;;;;;;6263147;23;20042;-91
2023/06/07 15:46:39;;;;;;;2.30;1.10;;;25.50;44.00;;;;;;6185803;28;20070;-92
2023/06/07 15:49:40;;;;;;;1.70;0.98;;;25.90;45.50;;;;;;6286071;23;20061;-59
2023/06/07 15:53:17;;;;;;;1.75;1.25;;;25.60;43.70;;;;;;6189094;23;20026;31
2023/06/07 16:07:24;;;;;;;1.20;1.10;;;25.50;43.20;;;;;;6233249;23;19922;-92
2023/06/07 16:10:26;;;;;;;1.27;1.17;;;25.90;44.30;;;;;;6423255;23;20050;-92
2023/06/07 16:13:28;;;;;;;1.30;1.20;;;24.30;45.40;;;;;;6188492;28;20051;-92
2023/06/07 16:16:30;;;;;;;1.20;1.10;;;22.70;46.20;;;;;;6181867;28;20051;-92
2023/06/07 16:19:35;;;;;;;1.10;1.00;;;22.60;44.80;;;;;;6262917;23;20063;-92
2023/06/07 16:22:40;;;;;;;1.63;1.10;;;27.20;47.40;;;;;;6178906;28;20532;-93
2023/06/07 16:25:48;;;;;;;1.08;0.98;;;25.50;57.20;;;;;;6390661;23;20097;-94
2023/06/07 16:28:50;;;;;;;1.00;0.88;;;25.40;44.50;;;;;;6611085;23;20018;-94
2023/06/07 16:31:55;;;;;;;1.35;1.25;;;23.20;45.70;;;;;;6975995;23;20016;-93
2023/06/07 16:34:57;;;;;;;1.33;1.23;;;25.60;46.10;;;;;;6521747;23;20041;-54
2023/06/07 16:37:59;;;;;;;1.20;1.10;;;25.60;44.10;;;;;;6192313;28;20043;-49
2023/06/07 16:41:01;;;;;;;1.75;1.10;;;25.70;44.30;;;;;;6486308;23;20055;-52
2023/06/07 16:44:02;;;;;;;1.00;0.90;;;25.80;44.50;;;;;;6180508;28;20027;-50
2023/06/07 16:47:04;;;;;;;0.93;0.93;;;25.60;44.40;;;;;;6173348;28;20046;-49
2023/06/07 16:50:06;;;;;;;1.40;1.10;;;25.70;44.30;;;;;;6181433;28;20462;-53
2023/06/07 16:53:09;;;;;;;1.20;1.10;;;25.40;44.10;;;;;;6169683;28;20113;-54
2023/06/07 16:56:10;;;;;;;1.33;1.02;;;25.40;44.10;;;;;;6187271;28;20039;-51
2023/06/07 16:59:12;;;;;;;1.50;1.40;;;25.70;44.40;;;;;;6189993;28;20035;-53
2023/06/07 17:02:13;;;;;;;1.88;1.40;;;25.40;44.30;;;;;;6185795;28;20447;-53
2023/06/07 17:05:18;;;;;;;1.13;1.02;;;25.70;44.50;;;;;;6168655;28;20035;-53
2023/06/07 17:18:40;;;;;;;1.17;1.08;;;25.50;44.30;;;;;;6428106;23;20058;-53
2023/06/07 17:21:45;;;;;;;1.48;1.10;;;25.70;44.80;;;;;;6236209;23;20047;-86
2023/06/07 17:24:46;;;;;;;1.20;1.10;;;25.50;45.20;;;;;;6158628;29;20039;-86
2023/06/07 17:27:48;;;;;;;1.38;1.27;;;26.90;46.40;;;;;;6164295;28;20055;-86
2023/06/07 17:30:52;;;;;;;1.10;1.00;;;24.90;45.20;;;;;;6155594;29;20131;-85
2023/06/07 17:34:00;;;;;;;1.27;1.17;;;25.60;46.30;;;;;;6157127;29;20095;-87
2023/06/07 17:37:02;;;;;;;1.08;0.98;;;25.40;45.00;;;;;;6145502;29;20054;-87
2023/06/07 17:40:04;;;;;;;1.33;1.20;;;25.30;45.20;;;;;;6153469;29;20047;-88
2023/06/07 17:43:08;;;;;;;1.17;1.08;;;24.10;44.20;;;;;;6148444;29;20538;-88
2023/06/07 17:46:10;;;;;;;1.40;1.30;;;25.20;45.70;;;;;;6168720;29;20039;-88
2023/06/07 17:49:16;;;;;;;1.20;1.10;;;24.60;45.70;;;;;;6147034;29;20047;-88
2023/06/07 17:52:17;;;;;;;1.30;1.20;;;23.30;44.50;;;;;;6150920;29;20043;-87
2023/06/07 17:55:25;;;;;;;1.38;1.10;;;24.50;45.10;;;;;;6168150;28;20046;-88
2023/06/07 17:58:27;;;;;;;1.05;0.90;;;25.10;45.90;;;;;;6149719;29;20040;-88
2023/06/07 18:01:28;;;;;;;1.00;0.90;;;26.80;48.10;;;;;;6145619;29;20047;-88
2023/06/07 18:04:31;;;;;;;1.23;1.13;;;25.00;45.90;;;;;;6135257;29;20102;-88
2023/06/07 18:07:32;;;;;;;1.20;0.93;;;25.80;46.60;;;;;;6148002;29;20051;-88
2023/06/07 18:10:34;;;;;;;1.15;1.05;;;24.50;46.20;;;;;;6148248;29;20111;-88
2023/06/07 18:13:35;;;;;;;1.92;1.08;;;25.60;47.00;;;;;;6149023;29;20062;-88
2023/06/07 18:16:37;;;;;;;1.33;1.23;;;25.00;46.60;;;;;;6145239;29;20053;-88
2023/06/07 18:19:41;;;;;;;1.10;1.00;;;22.90;45.00;;;;;;6150160;29;20047;-88
2023/06/07 18:22:43;;;;;;;1.33;1.17;;;22.60;44.50;;;;;;6152411;29;20055;-88
2023/06/07 18:25:50;;;;;;;1.30;1.20;;;27.30;47.70;;;;;;6155489;29;20058;-88
2023/06/07 18:28:52;;;;;;;1.13;0.98;;;24.30;49.80;;;;;;6171176;29;20142;-88
2023/06/07 18:31:53;;;;;;;1.55;1.45;;;26.90;48.10;;;;;;6151364;29;20043;-88
2023/06/07 18:34:56;;;;;;;1.15;1.05;;;27.20;48.30;;;;;;6153473;29;20071;-88
2023/06/07 18:37:58;;;;;;;1.45;1.35;;;24.30;46.60;;;;;;6142828;29;20142;-88
2023/06/07 18:40:59;;;;;;;1.10;1.00;;;25.30;46.90;;;;;;6161785;23;20058;-53
2023/06/07 18:44:01;;;;;;;1.45;1.10;;;25.10;46.20;;;;;;6135372;28;20035;-55
2023/06/07 18:47:04;;;;;;;1.40;1.08;;;25.40;46.30;;;;;;6150829;28;20046;-55